Time;durP1;ratioP1;P1;durP2;ratioP2;P2;SDS_P1;SDS_P2;PMS_P1;PMS_P2;Temp;Humidity;BMP_temperature;BMP_pressure;BME280_temperature;BME280_humidity;BME280_pressure;Samples;Min_cycle;Max_cycle;Signal;HPM_P1;HPM_P2
2022/06/12 00:02:55;;;;;;;;;;;17.00;99.90;;;16.18;78.77;96257.66;10467847;28;2515;-71
2022/06/12 00:07:57;;;;;;;;;;;17.00;99.90;;;16.13;79.59;96260.44;10469839;28;1889;-71
2022/06/12 00:13:00;;;;;;;;;;;17.00;99.90;;;16.17;79.95;96255.25;10480014;28;1882;-72
2022/06/12 00:18:03;;;;;;;;;;;17.00;99.90;;;16.13;80.33;96252.31;10471522;28;1918;-72
2022/06/12 00:23:06;;;;;;;;;;;17.00;99.90;;;16.01;80.74;96257.38;10473194;28;1912;-72
2022/06/12 00:28:09;;;;;;;;;;;16.90;99.90;;;15.88;82.12;96256.22;10472023;28;1842;-72
2022/06/12 00:33:12;;;;;;;;;;;16.80;99.90;;;15.91;82.58;96252.16;10476289;28;1849;-72
2022/06/12 00:38:15;;;;;;;;;;;16.80;99.90;;;15.92;82.82;96259.19;10469105;28;2304;-72
2022/06/12 00:43:18;;;;;;;;;;;16.80;99.90;;;15.87;83.16;96259.25;10480517;28;2074;-71
2022/06/12 00:48:20;;;;;;;;;;;16.70;99.90;;;15.79;83.29;96259.94;10469830;28;2269;-72
2022/06/12 00:53:27;;;;;;;;;;;16.70;99.90;;;15.71;83.23;96253.25;10487248;28;2242;-71
2022/06/12 00:58:30;;;;;;;;;;;16.60;99.90;;;15.52;84.79;96255.94;10477044;28;2635;-72
2022/06/12 01:06:33;;;;;;;;;;;16.50;99.90;;;15.51;85.24;96251.63;10483718;28;1944;-72
2022/06/12 01:09:00;;;;;;;;;;;16.40;99.90;;;15.45;85.52;96241.16;10497251;28;1999;-72
2022/06/12 01:14:03;;;;;;;;;;;16.30;99.90;;;15.46;85.14;96240.03;10481277;28;2446;-72
2022/06/12 01:19:06;;;;;;;;;;;16.30;99.90;;;15.42;85.00;96245.25;10479120;28;1886;-69
2022/06/12 01:24:10;;;;;;;;;;;16.30;99.90;;;15.41;84.78;96240.94;10483127;28;1989;-70
2022/06/12 01:29:13;;;;;;;;;;;16.30;99.90;;;15.40;85.33;96245.56;10482182;28;1898;-70
2022/06/12 01:34:19;;;;;;;;;;;16.20;99.90;;;15.40;85.34;96232.00;10480272;28;1950;-71
2022/06/12 01:39:22;;;;;;;;;;;16.20;99.90;;;15.32;86.88;96234.56;10476488;28;2041;-71
2022/06/12 01:44:24;;;;;;;;;;;16.20;99.90;;;15.18;87.17;96244.50;10480788;28;1986;-71
2022/06/12 01:49:27;;;;;;;;;;;16.10;99.90;;;15.22;86.94;96232.81;10491035;28;1951;-71
2022/06/12 01:54:31;;;;;;;;;;;16.10;99.90;;;15.25;86.86;96229.50;10472892;28;1939;-69
2022/06/12 01:59:34;;;;;;;;;;;16.00;99.90;;;15.17;87.35;96222.03;10474315;28;2092;-70
2022/06/12 02:04:36;;;;;;;;;;;16.00;99.90;;;15.05;87.90;96218.94;10471854;28;2010;-71
2022/06/12 02:09:39;;;;;;;;;;;16.00;99.90;;;15.05;87.97;96218.94;10471720;28;2343;-72
2022/06/12 02:14:42;;;;;;;;;;;15.90;99.90;;;14.95;87.97;96214.50;10473588;28;1986;-72
2022/06/12 02:19:45;;;;;;;;;;;15.80;99.90;;;14.90;88.86;96216.44;10474848;28;2010;-71
2022/06/12 02:24:47;;;;;;;;;;;16.00;99.90;;;14.92;90.22;96217.75;10482369;28;1869;-71
2022/06/12 02:29:50;;;;;;;;;;;15.80;99.90;;;14.86;89.23;96213.50;10487943;28;2046;-72
2022/06/12 02:34:53;;;;;;;;;;;15.80;99.90;;;14.85;89.75;96215.41;10475496;28;2027;-71
2022/06/12 02:39:56;;;;;;;;;;;15.70;99.90;;;14.85;89.74;96214.59;10476502;28;2339;-71
2022/06/12 02:44:59;;;;;;;;;;;15.80;99.90;;;14.83;90.30;96217.59;10474389;28;2395;-71
2022/06/12 02:50:02;;;;;;;;;;;15.70;99.90;;;14.72;90.75;96209.91;10471475;28;2303;-71
2022/06/12 02:55:06;;;;;;;;;;;15.60;99.90;;;14.81;90.51;96213.56;10471977;28;1919;-71
2022/06/12 03:00:10;;;;;;;;;;;15.60;99.90;;;14.80;90.50;96210.06;10475792;28;1958;-70
2022/06/12 03:05:13;;;;;;;;;;;15.60;99.90;;;14.77;90.88;96210.66;10487983;28;2130;-70
2022/06/12 03:10:16;;;;;;;;;;;15.60;99.90;;;14.78;90.24;96217.66;10471209;28;1979;-71
2022/06/12 03:15:20;;;;;;;;;;;15.60;99.90;;;14.79;90.24;96223.88;10474461;28;2031;-71
2022/06/12 03:20:25;;;;;;;;;;;15.60;99.90;;;14.78;89.70;96222.28;10473462;28;1971;-70
2022/06/12 03:25:28;;;;;;;;;;;15.60;99.90;;;14.76;89.77;96216.31;10469123;28;1908;-71
2022/06/12 03:30:31;;;;;;;;;;;15.60;99.90;;;14.83;89.39;96223.03;10475040;28;1467;-72
2022/06/12 03:35:34;;;;;;;;;;;15.60;99.90;;;14.80;89.59;96231.69;10469328;28;1516;-72
2022/06/12 03:40:38;;;;;;;;;;;15.60;99.90;;;14.97;88.35;96239.34;10474209;28;1975;-72
2022/06/12 03:45:42;;;;;;;;;;;15.60;99.90;;;15.09;87.94;96241.66;10489419;28;1990;-72
2022/06/12 03:50:46;;;;;;;;;;;15.80;99.90;;;15.25;86.94;96244.94;10466200;28;2093;-72
2022/06/12 04:01:10;;;;;;;;;;;16.10;99.90;;;15.82;84.06;96237.63;10473233;28;2077;-72
2022/06/12 04:06:13;;;;;;;;;;;16.40;99.90;;;16.02;83.18;96248.16;10477122;28;1990;-72
2022/06/12 04:11:16;;;;;;;;;;;16.60;99.90;;;16.17;80.80;96245.19;10474803;28;1555;-72
2022/06/12 04:16:20;;;;;;;;;;;16.70;99.90;;;16.41;78.74;96245.06;10474809;28;1844;-72
2022/06/12 04:21:24;;;;;;;;;;;17.00;99.90;;;16.65;78.37;96250.28;10484085;28;1963;-71
2022/06/12 04:26:27;;;;;;;;;;;17.10;99.90;;;17.11;76.14;96235.81;10478165;28;1891;-72
2022/06/12 04:31:30;;;;;;;;;;;17.50;99.90;;;17.36;73.63;96239.91;10477912;28;2057;-72
2022/06/12 04:36:33;;;;;;;;;;;17.80;99.90;;;17.63;72.47;96233.63;10481581;28;2018;-71
2022/06/12 04:41:36;;;;;;;;;;;18.10;99.90;;;17.82;71.02;96233.47;10484864;28;2037;-71
2022/06/12 04:46:39;;;;;;;;;;;18.40;99.90;;;18.00;71.29;96227.03;10478108;28;1983;-72
2022/06/12 04:51:43;;;;;;;;;;;18.50;99.90;;;18.26;68.91;96220.97;10477423;28;1976;-72
2022/06/12 04:56:46;;;;;;;;;;;18.70;99.90;;;18.30;69.61;96222.72;10477847;28;1958;-72
2022/06/12 05:01:49;;;;;;;;;;;18.90;99.90;;;18.64;66.82;96222.13;10479670;28;1966;-72
2022/06/12 05:06:52;;;;;;;;;;;19.10;99.90;;;18.85;65.86;96218.84;10476706;28;2149;-72
2022/06/12 05:11:54;;;;;;;;;;;19.30;99.90;;;19.11;65.76;96224.38;10479130;28;2044;-71
2022/06/12 05:16:58;;;;;;;;;;;19.60;99.90;;;19.44;63.40;96217.38;10477618;28;1998;-72
2022/06/12 05:22:03;;;;;;;;;;;19.80;99.90;;;19.57;63.08;96223.00;10479236;28;2042;-70
2022/06/12 05:27:06;;;;;;;;;;;20.10;99.90;;;19.97;60.93;96219.00;10475957;28;1998;-71
2022/06/12 05:32:09;;;;;;;;;;;20.30;99.90;;;20.32;60.23;96212.69;10490469;28;1989;-71
2022/06/12 05:37:14;;;;;;;;;;;20.60;99.90;;;20.19;60.56;96214.47;10472822;28;1998;-71
2022/06/12 05:42:17;;;;;;;;;;;20.80;99.90;;;20.72;58.76;96216.75;10475801;28;2001;-71
2022/06/12 05:47:20;;;;;;;;;;;21.00;99.90;;;20.72;57.46;96216.75;10476552;28;1946;-72
2022/06/12 05:52:23;;;;;;;;;;;21.30;99.90;;;21.13;56.77;96226.22;10479555;28;1871;-72
2022/06/12 05:57:25;;;;;;;;;;;21.50;99.90;;;21.43;54.38;96224.28;10485553;28;1948;-72
2022/06/12 06:02:29;;;;;;;;;;;21.70;99.90;;;21.48;54.90;96209.59;10478318;28;1946;-72
2022/06/12 06:07:33;;;;;;;;;;;22.00;99.90;;;21.94;52.98;96214.06;10479271;28;1962;-72
2022/06/12 06:12:36;;;;;;;;;;;22.30;99.90;;;22.10;52.75;96214.28;10474099;28;1974;-71
2022/06/12 06:17:40;;;;;;;;;;;22.50;99.90;;;22.37;50.82;96221.09;10475963;28;2037;-72
2022/06/12 06:22:43;;;;;;;;;;;22.80;99.90;;;22.83;49.78;96219.09;10479202;28;2023;-72
2022/06/12 06:27:46;;;;;;;;;;;23.00;99.90;;;22.90;49.26;96227.59;10502896;28;1949;-71
2022/06/12 06:32:55;;;;;;;;;;;23.20;99.90;;;23.26;48.96;96220.50;10477882;28;2182;-70
2022/06/12 06:37:57;;;;;;;;;;;23.60;99.90;;;23.23;47.19;96218.47;10474334;28;2033;-71
2022/06/12 06:43:01;;;;;;;;;;;23.60;99.90;;;23.36;47.64;96220.06;10473935;28;1982;-71
2022/06/12 06:48:05;;;;;;;;;;;23.80;99.90;;;23.75;47.01;96223.22;10478992;28;1848;-71
2022/06/12 06:53:09;;;;;;;;;;;24.10;99.90;;;24.10;46.21;96226.97;10476272;28;2042;-71
2022/06/12 06:58:12;;;;;;;;;;;24.40;99.90;;;24.44;46.66;96222.84;10487732;28;1943;-71
2022/06/12 07:03:16;;;;;;;;;;;24.60;99.90;;;24.57;45.48;96223.56;10487553;28;2108;-71
2022/06/12 07:08:19;;;;;;;;;;;25.00;99.90;;;24.68;43.80;96219.13;10482632;28;1894;-71
2022/06/12 07:13:22;;;;;;;;;;;25.00;99.90;;;24.51;46.07;96223.03;10478295;28;1929;-72
2022/06/12 07:18:25;;;;;;;;;;;25.20;99.90;;;24.93;43.22;96225.25;10484686;28;1918;-71
2022/06/12 07:23:28;;;;;;;;;;;25.30;99.90;;;24.94;42.48;96221.38;10475175;28;1922;-69
2022/06/12 07:28:31;;;;;;;;;;;25.40;99.90;;;25.06;42.61;96215.00;10473839;28;1867;-70
2022/06/12 07:33:37;;;;;;;;;;;25.50;99.90;;;25.34;40.67;96207.41;10470769;28;1875;-70
2022/06/12 07:38:40;;;;;;;;;;;25.70;99.90;;;25.71;39.71;96215.31;10467952;28;1857;-70
2022/06/12 07:44:03;;;;;;;;;;;26.00;99.90;;;26.17;39.32;96214.69;10478022;28;1918;-69
2022/06/12 07:49:07;;;;;;;;;;;26.30;99.90;;;26.23;39.16;96214.03;10461134;28;1920;-69
2022/06/12 07:54:10;;;;;;;;;;;26.50;99.90;;;26.63;39.29;96210.09;10456224;28;1768;-71
2022/06/12 07:59:13;;;;;;;;;;;26.80;99.90;;;26.65;38.16;96207.75;10469436;28;1905;-71
2022/06/12 08:04:16;;;;;;;;;;;27.00;99.90;;;26.38;38.22;96204.88;10460909;28;1922;-69
2022/06/12 08:09:19;;;;;;;;;;;27.10;99.90;;;26.20;37.56;96213.97;10484418;28;1860;-70
2022/06/12 08:14:22;;;;;;;;;;;26.90;99.90;;;26.17;37.17;96215.50;10468808;28;1872;-70
2022/06/12 08:24:46;;;;;;;;;;;26.90;99.90;;;26.48;34.02;96203.53;10468326;28;1956;-70
2022/06/12 08:29:49;;;;;;;;;;;27.10;97.70;;;26.70;34.16;96209.41;10471869;28;1896;-69
2022/06/12 08:34:53;;;;;;;;;;;27.20;97.60;;;26.65;35.20;96210.50;10471528;28;1835;-69
2022/06/12 08:39:56;;;;;;;;;;;27.10;97.10;;;26.44;33.57;96208.16;10469878;28;1843;-70
2022/06/12 08:45:00;;;;;;;;;;;27.10;94.80;;;25.76;33.41;96206.78;10463235;28;1957;-68
2022/06/12 08:50:04;;;;;;;;;;;26.80;92.50;;;25.92;34.14;96197.66;10471196;28;1806;-69
2022/06/12 08:55:07;;;;;;;;;;;26.70;93.60;;;26.56;33.04;96190.66;10470742;28;1782;-72
2022/06/12 09:00:11;;;;;;;;;;;26.90;93.80;;;26.16;32.52;96191.88;10469325;28;1985;-71
2022/06/12 09:05:13;;;;;;;;;;;27.00;91.40;;;26.17;31.79;96187.16;10475548;28;1806;-71
2022/06/12 09:10:18;;;;;;;;;;;26.90;90.00;;;25.80;33.06;96182.09;10478897;28;1983;-72
2022/06/12 09:15:21;;;;;;;;;;;26.80;90.00;;;26.46;33.10;96172.75;10477630;28;1806;-73
2022/06/12 09:20:25;;;;;;;;;;;26.90;91.10;;;26.80;32.86;96170.19;10474799;28;1987;-72
2022/06/12 09:25:28;;;;;;;;;;;27.20;92.60;;;26.83;33.58;96170.25;10476516;28;1838;-72
2022/06/12 09:30:32;;;;;;;;;;;27.30;92.20;;;26.89;33.26;96160.50;10481566;28;1832;-72
2022/06/12 09:35:36;;;;;;;;;;;27.50;91.20;;;26.72;32.37;96158.25;10476932;28;1852;-72
2022/06/12 09:40:39;;;;;;;;;;;27.50;89.20;;;27.00;32.17;96157.13;10474617;28;1910;-71
2022/06/12 09:45:42;;;;;;;;;;;27.50;89.30;;;27.10;31.25;96159.25;10481071;28;1930;-72
2022/06/12 09:50:46;;;;;;;;;;;27.70;88.10;;;27.41;32.23;96152.59;10481382;28;1817;-72
2022/06/12 09:55:49;;;;;;;;;;;27.90;88.60;;;27.11;29.97;96147.88;10480082;28;1858;-72
2022/06/12 10:00:52;;;;;;;;;;;27.90;85.50;;;26.99;32.18;96139.78;10476552;28;1906;-72
2022/06/12 10:05:56;;;;;;;;;;;27.80;87.80;;;27.36;30.42;96139.94;10480441;28;1800;-72
2022/06/12 10:11:00;;;;;;;;;;;27.90;86.10;;;26.97;30.92;96133.00;10479378;28;1751;-72
2022/06/12 10:16:03;;;;;;;;;;;27.80;85.40;;;26.75;30.12;96118.91;10479706;28;1887;-71
2022/06/12 10:21:06;;;;;;;;;;;27.60;84.50;;;26.82;31.50;96127.28;10477977;28;1914;-71
2022/06/12 10:26:09;;;;;;;;;;;27.50;86.20;;;26.71;31.19;96112.53;10472897;28;1812;-71
2022/06/12 10:31:12;;;;;;;;;;;27.60;84.80;;;26.80;31.03;96109.53;10492153;28;1955;-72
2022/06/12 10:36:22;;;;;;;;;;;27.50;84.90;;;27.56;30.89;96106.69;10487629;28;1792;-72
2022/06/12 10:41:25;;;;;;;;;;;28.00;86.10;;;28.37;26.58;96101.28;10475344;28;1918;-72
2022/06/12 10:46:30;;;;;;;;;;;29.40;80.40;;;28.63;26.29;96107.84;10475869;28;1815;-73
2022/06/12 10:51:36;;;;;;;;;;;30.40;78.50;;;29.57;25.33;96089.50;10479115;28;1861;-72
2022/06/12 10:56:39;;;;;;;;;;;31.10;77.70;;;29.71;23.64;96093.53;10476851;28;1796;-71
2022/06/12 11:01:42;;;;;;;;;;;31.60;73.70;;;29.73;22.66;96082.88;10476158;28;1981;-71
2022/06/12 11:06:46;;;;;;;;;;;31.80;70.70;;;29.84;22.01;96075.38;10475555;28;1807;-72
2022/06/12 11:11:48;;;;;;;;;;;31.90;69.30;;;30.37;19.53;96063.63;10475259;28;1814;-72
2022/06/12 11:16:51;;;;;;;;;;;32.50;66.40;;;29.98;18.36;96061.56;10471558;28;1859;-72
2022/06/12 11:21:55;;;;;;;;;;;32.80;62.40;;;30.26;19.17;96051.72;10471682;28;1913;-72
2022/06/12 11:26:59;;;;;;;;;;;32.70;62.10;;;29.27;19.90;96052.97;10482188;28;1808;-72
2022/06/12 11:32:04;;;;;;;;;;;32.30;62.00;;;28.52;21.99;96042.19;10494120;28;1870;-72
2022/06/12 11:37:07;;;;;;;;;;;30.90;63.40;;;28.27;21.87;96041.16;10475216;28;1822;-72
2022/06/12 11:42:14;;;;;;;;;;;29.80;64.40;;;27.62;23.56;96034.19;10475082;28;1910;-73
2022/06/12 11:47:17;;;;;;;;;;;29.10;66.20;;;27.75;24.16;96026.44;10474722;28;1760;-71
2022/06/12 11:52:21;;;;;;;;;;;28.70;67.70;;;27.95;22.52;96025.06;10477862;28;1833;-71
2022/06/12 11:57:24;;;;;;;;;;;28.80;66.20;;;28.02;23.02;96019.63;10472644;28;1821;-72
2022/06/12 12:02:27;;;;;;;;;;;28.90;66.50;;;27.68;22.93;96016.13;10472656;28;1905;-72
2022/06/12 12:07:30;;;;;;;;;;;28.80;66.10;;;27.88;22.86;96013.16;10477443;28;1779;-71
2022/06/12 12:12:34;;;;;;;;;;;28.80;65.70;;;27.86;22.46;96007.22;10473782;28;1848;-71
2022/06/12 12:17:37;;;;;;;;;;;28.80;65.10;;;27.96;23.74;95996.28;10472930;28;1821;-71
2022/06/12 12:22:40;;;;;;;;;;;28.80;66.60;;;28.22;24.10;95994.50;10474860;28;1977;-71
2022/06/12 12:27:42;;;;;;;;;;;29.10;67.40;;;28.48;23.03;95985.25;10476213;28;1998;-72
2022/06/12 12:32:46;;;;;;;;;;;29.40;66.80;;;28.74;21.37;95984.25;10472225;28;2125;-72
2022/06/12 12:43:10;;;;;;;;;;;29.50;66.20;;;28.48;25.64;95977.75;10479919;28;1906;-72
2022/06/12 12:48:14;;;;;;;;;;;29.50;68.80;;;28.45;25.40;95975.78;10478816;28;1761;-73
2022/06/12 12:53:18;;;;;;;;;;;29.50;69.20;;;28.27;27.00;95969.28;10483219;28;1837;-71
2022/06/12 12:58:21;;;;;;;;;;;29.30;70.20;;;28.24;26.46;95968.06;10488614;28;2318;-70
2022/06/12 13:03:24;;;;;;;;;;;29.20;70.20;;;28.07;25.68;95965.97;10480264;28;1914;-72
2022/06/12 13:08:27;;;;;;;;;;;29.20;69.10;;;28.32;25.63;95959.88;10477788;28;2074;-72
2022/06/12 13:13:35;;;;;;;;;;;29.20;69.20;;;28.31;26.55;95956.31;10476531;28;1746;-71
2022/06/12 13:18:38;;;;;;;;;;;29.30;70.00;;;28.87;24.64;95945.97;10476860;28;1790;-71
2022/06/12 13:23:42;;;;;;;;;;;29.40;68.90;;;28.90;24.81;95946.00;10477330;28;1962;-72
2022/06/12 13:28:45;;;;;;;;;;;29.60;68.20;;;28.44;24.28;95941.00;10475623;28;1705;-70
2022/06/12 13:33:48;;;;;;;;;;;29.60;66.80;;;28.52;25.50;95939.06;10479787;28;1807;-71
2022/06/12 13:38:51;;;;;;;;;;;29.40;68.10;;;29.01;23.64;95921.16;10470408;28;1817;-71
2022/06/12 13:43:55;;;;;;;;;;;29.60;66.90;;;29.02;23.76;95912.50;10481748;28;1922;-71
2022/06/12 13:49:00;;;;;;;;;;;29.90;66.80;;;29.13;23.64;95903.41;10478499;28;1765;-71
2022/06/12 13:54:03;;;;;;;;;;;29.90;65.90;;;29.14;23.27;95902.22;10474428;28;1853;-71
2022/06/12 13:59:07;;;;;;;;;;;29.90;65.70;;;28.75;24.14;95908.38;10472805;28;1893;-71
2022/06/12 14:04:10;;;;;;;;;;;29.80;66.00;;;29.03;23.52;95902.22;10476292;28;1996;-71
2022/06/12 14:09:13;;;;;;;;;;;29.90;66.20;;;28.99;23.52;95896.66;10479499;28;1893;-71
2022/06/12 14:14:17;;;;;;;;;;;29.90;65.90;;;28.84;24.90;95908.81;10489018;28;2024;-71
2022/06/12 14:19:20;;;;;;;;;;;29.90;66.80;;;28.60;24.95;95898.44;10475651;28;1887;-71
2022/06/12 14:24:24;;;;;;;;;;;29.70;67.10;;;29.18;24.90;95897.50;10478038;28;1910;-71
2022/06/12 14:29:28;;;;;;;;;;;30.00;68.20;;;29.38;24.92;95898.72;10477524;28;1828;-71
2022/06/12 14:34:31;;;;;;;;;;;30.20;68.20;;;29.31;24.62;95898.72;10485645;28;1909;-71
2022/06/12 14:39:34;;;;;;;;;;;30.20;67.40;;;29.39;23.48;95894.78;10486151;28;1894;-71
2022/06/12 14:44:37;;;;;;;;;;;30.40;66.00;;;29.24;26.06;95891.19;10478454;28;1914;-71
2022/06/12 14:49:41;;;;;;;;;;;30.20;68.30;;;29.20;28.62;95892.34;10476856;28;1852;-71
2022/06/12 14:54:46;;;;;;;;;;;30.00;72.00;;;29.24;29.12;95888.41;10474689;28;1956;-70
2022/06/12 14:59:49;;;;;;;;;;;30.10;72.80;;;28.81;27.77;95873.63;10475437;28;1796;-72
2022/06/12 15:04:52;;;;;;;;;;;29.90;70.30;;;28.95;28.52;95865.44;10475598;28;1910;-72
2022/06/12 15:09:58;;;;;;;;;;;29.80;71.30;;;28.66;28.48;95858.16;10473956;28;1841;-72
2022/06/12 15:15:01;;;;;;;;;;;29.70;71.10;;;28.42;27.72;95854.88;10474239;28;1843;-71
2022/06/12 15:20:05;;;;;;;;;;;29.50;70.40;;;28.58;27.44;95860.09;10476694;28;1802;-72
2022/06/12 15:25:09;;;;;;;;;;;29.40;70.60;;;28.73;28.39;95845.16;10471458;28;1973;-71
2022/06/12 15:30:15;;;;;;;;;;;29.40;71.80;;;28.83;27.07;95840.06;10475275;28;1399;-72
2022/06/12 15:35:18;;;;;;;;;;;29.50;70.10;;;28.89;27.69;95841.25;10486238;28;1821;-71
2022/06/12 15:40:21;;;;;;;;;;;29.70;70.60;;;29.08;27.31;95827.13;10479673;28;1818;-71
2022/06/12 15:45:27;;;;;;;;;;;29.90;70.40;;;29.00;26.79;95826.28;10478192;28;1955;-72
2022/06/12 15:50:31;;;;;;;;;;;29.70;70.40;;;28.66;27.02;95822.22;10474872;28;1859;-71
2022/06/12 15:55:34;;;;;;;;;;;29.50;70.10;;;28.86;26.65;95809.63;10474099;28;2025;-73
2022/06/12 16:00:37;;;;;;;;;;;29.50;69.60;;;28.52;26.89;95804.38;10471541;28;2022;-72
2022/06/12 16:05:41;;;;;;;;;;;29.40;69.70;;;28.38;26.75;95798.78;10474543;28;1914;-72
2022/06/12 16:10:44;;;;;;;;;;;29.10;69.90;;;28.12;28.53;95785.19;10472051;28;1851;-72
2022/06/12 16:15:53;;;;;;;;;;;29.00;71.40;;;28.03;28.95;95782.78;10468528;28;1798;-72
2022/06/12 16:20:56;;;;;;;;;;;28.90;71.30;;;28.29;28.88;95778.97;10468520;28;1856;-72
2022/06/12 16:25:59;;;;;;;;;;;29.00;71.90;;;28.16;27.28;95772.97;10473704;28;1983;-71
2022/06/12 16:31:02;;;;;;;;;;;28.90;69.80;;;28.41;25.65;95775.88;10471306;28;1796;-72
2022/06/12 16:36:06;;;;;;;;;;;29.00;68.80;;;28.03;25.04;95768.97;10472564;28;1901;-72
2022/06/12 16:41:09;;;;;;;;;;;29.00;67.30;;;27.94;25.82;95760.25;10476220;28;1820;-72
2022/06/12 16:46:12;;;;;;;;;;;28.80;67.70;;;27.64;27.07;95766.72;10467717;28;1926;-70
2022/06/12 16:51:15;;;;;;;;;;;28.50;68.80;;;27.46;27.25;95760.28;10475849;28;1851;-71
2022/06/12 16:56:18;;;;;;;;;;;28.40;69.10;;;27.34;27.41;95758.59;10470426;28;1954;-71
2022/06/12 17:01:21;;;;;;;;;;;28.10;69.80;;;27.26;27.28;95759.75;10472355;28;1789;-72
2022/06/12 17:06:25;;;;;;;;;;;28.00;69.70;;;26.88;29.20;95756.22;10468144;28;1921;-71
2022/06/12 17:11:28;;;;;;;;;;;27.80;70.40;;;26.60;30.34;95765.00;10470845;28;1893;-70
2022/06/12 17:16:31;;;;;;;;;;;27.60;72.30;;;26.45;30.30;95763.22;10473090;28;1765;-71
2022/06/12 17:21:34;;;;;;;;;;;27.30;72.40;;;26.36;30.82;95760.75;10472780;28;1836;-71
2022/06/12 17:26:37;;;;;;;;;;;27.10;73.00;;;26.31;30.58;95758.31;10478368;28;1922;-71
2022/06/12 17:31:40;;;;;;;;;;;27.00;73.40;;;26.26;30.80;95758.66;10481460;28;2167;-71
2022/06/12 17:36:45;;;;;;;;;;;26.90;73.20;;;26.19;31.39;95758.56;10473355;28;1847;-71
2022/06/12 17:41:47;;;;;;;;;;;26.90;73.40;;;26.16;32.05;95759.31;10478205;28;1816;-71
2022/06/12 17:46:51;;;;;;;;;;;26.90;74.30;;;25.95;33.09;95745.25;10479812;28;1983;-72
2022/06/12 17:51:54;;;;;;;;;;;26.70;75.30;;;25.90;33.65;95743.66;10482569;28;1790;-72
2022/06/12 17:56:57;;;;;;;;;;;26.60;76.10;;;25.84;33.33;95737.66;10477296;28;1862;-72
2022/06/12 18:02:03;;;;;;;;;;;26.50;75.80;;;25.74;32.26;95730.03;10478450;28;1878;-72
2022/06/12 18:07:06;;;;;;;;;;;26.50;75.10;;;25.61;33.43;95731.41;10476816;28;2119;-74
2022/06/12 18:12:09;;;;;;;;;;;26.30;75.90;;;25.52;33.34;95730.88;10470975;28;1863;-73
2022/06/12 18:22:33;;;;;;;;;;;26.10;76.20;;;25.20;34.13;95733.94;10473496;28;1962;-72
2022/06/12 18:27:36;;;;;;;;;;;26.00;77.00;;;25.05;35.09;95737.59;10472053;28;1794;-73
2022/06/12 18:32:39;;;;;;;;;;;25.90;77.50;;;24.84;35.93;95732.50;10466685;28;2228;-72
2022/06/12 18:37:42;;;;;;;;;;;25.70;78.20;;;24.82;36.31;95732.09;10464590;28;1842;-72
2022/06/12 18:42:45;;;;;;;;;;;25.60;79.00;;;24.65;37.34;95725.09;10477323;28;1977;-73
2022/06/12 18:47:48;;;;;;;;;;;25.50;80.10;;;24.53;37.00;95728.03;10483269;28;1810;-72
2022/06/12 18:52:51;;;;;;;;;;;25.40;80.10;;;24.27;37.80;95728.69;10478621;28;1845;-74
2022/06/12 18:57:54;;;;;;;;;;;25.20;80.60;;;24.06;38.29;95726.31;10472468;28;1928;-74
2022/06/12 19:02:57;;;;;;;;;;;25.00;81.40;;;23.99;38.25;95731.66;10481794;28;1999;-72
2022/06/12 19:08:00;;;;;;;;;;;24.80;81.50;;;23.84;38.91;95738.00;10474701;28;1981;-75
2022/06/12 19:13:04;;;;;;;;;;;24.70;82.10;;;23.51;39.85;95732.91;10471927;28;1985;-74
2022/06/12 19:18:07;;;;;;;;;;;24.50;82.60;;;23.31;40.33;95730.13;10470175;28;1953;-73
2022/06/12 19:23:10;;;;;;;;;;;24.30;83.20;;;23.07;41.31;95730.31;10470691;28;2052;-74
2022/06/12 19:28:13;;;;;;;;;;;24.00;84.00;;;22.90;42.37;95726.00;10476677;28;2126;-73
2022/06/12 19:33:16;;;;;;;;;;;23.80;85.00;;;22.75;43.27;95721.28;10469269;28;1866;-73
2022/06/12 19:38:19;;;;;;;;;;;23.70;86.00;;;22.56;44.16;95722.75;10467667;28;1874;-73
2022/06/12 19:43:22;;;;;;;;;;;23.60;87.10;;;22.39;44.78;95731.28;10472117;28;1980;-72
2022/06/12 19:48:25;;;;;;;;;;;23.30;87.60;;;22.23;45.59;95719.53;10466872;28;1850;-73
2022/06/12 19:53:28;;;;;;;;;;;23.10;88.40;;;22.07;45.53;95738.59;10466568;28;1825;-74
2022/06/12 19:58:32;;;;;;;;;;;23.00;88.50;;;21.92;46.21;95731.94;10470738;28;1807;-73
2022/06/12 20:03:35;;;;;;;;;;;22.90;89.30;;;21.93;46.50;95730.78;10468634;28;1980;-74
2022/06/12 20:08:38;;;;;;;;;;;22.80;89.60;;;21.76;47.10;95733.81;10472031;28;1833;-72
2022/06/12 20:13:41;;;;;;;;;;;22.70;90.00;;;21.64;47.29;95737.38;10470984;28;1833;-73
2022/06/12 20:18:45;;;;;;;;;;;22.50;90.30;;;21.48;47.72;95731.00;10475086;28;1787;-74
2022/06/12 20:23:49;;;;;;;;;;;22.40;90.60;;;21.48;47.98;95722.81;10473348;28;1909;-73
2022/06/12 20:28:53;;;;;;;;;;;22.40;91.00;;;21.39;48.62;95725.69;10472199;28;1774;-72
2022/06/12 20:33:56;;;;;;;;;;;22.30;91.60;;;21.43;48.95;95725.75;10474395;28;1827;-73
2022/06/12 20:38:59;;;;;;;;;;;22.20;92.10;;;21.29;49.75;95718.72;10475423;28;1804;-73
2022/06/12 20:44:03;;;;;;;;;;;21.80;92.80;;;21.13;50.50;95717.00;10476129;28;1948;-74
2022/06/12 20:49:06;;;;;;;;;;;22.10;93.50;;;21.04;51.18;95725.31;10471257;28;1958;-72
2022/06/12 20:54:10;;;;;;;;;;;21.90;94.20;;;20.98;51.61;95722.00;10475623;28;1917;-72
2022/06/12 20:59:13;;;;;;;;;;;21.90;94.70;;;20.89;51.93;95713.13;10476322;28;1843;-73
2022/06/12 21:04:16;;;;;;;;;;;21.80;94.90;;;20.75;52.56;95710.75;10483283;28;1910;-72
2022/06/12 21:09:20;;;;;;;;;;;21.70;95.30;;;20.66;53.22;95714.69;10474398;28;1842;-73
2022/06/12 21:14:24;;;;;;;;;;;21.50;95.70;;;20.66;53.22;95701.03;10479618;28;1985;-73
2022/06/12 21:19:28;;;;;;;;;;;21.40;96.00;;;20.57;53.83;95705.81;10478789;28;1859;-73
2022/06/12 21:24:30;;;;;;;;;;;21.40;96.30;;;20.49;54.27;95700.13;10482598;28;1984;-73
2022/06/12 21:29:33;;;;;;;;;;;21.40;96.80;;;20.32;55.33;95694.81;10479229;28;1846;-73
2022/06/12 21:34:37;;;;;;;;;;;21.30;97.40;;;20.28;55.89;95688.41;10489412;28;1811;-73
2022/06/12 21:39:42;;;;;;;;;;;21.20;97.90;;;20.23;56.17;95678.53;10482771;28;1826;-72
2022/06/12 21:44:46;;;;;;;;;;;21.10;98.40;;;20.07;56.77;95671.31;10480061;28;1906;-73
2022/06/12 21:49:49;;;;;;;;;;;21.00;98.60;;;20.16;56.61;95663.81;10477586;28;1822;-73
2022/06/12 21:54:53;;;;;;;;;;;20.90;99.10;;;20.06;57.39;95656.09;10478594;28;1827;-72
2022/06/12 21:59:56;;;;;;;;;;;20.90;99.70;;;20.09;57.69;95652.66;10480283;28;1904;-72
2022/06/12 22:04:59;;;;;;;;;;;21.00;99.90;;;20.03;58.03;95643.09;10480538;28;1918;-73
2022/06/12 22:10:02;;;;;;;;;;;20.90;99.90;;;19.95;58.19;95648.31;10474967;28;1846;-72
2022/06/12 22:15:05;;;;;;;;;;;20.80;99.90;;;19.83;58.48;95648.25;10479426;28;1877;-75
2022/06/12 22:20:08;;;;;;;;;;;20.80;99.90;;;19.78;58.86;95642.22;10476856;28;1805;-73
2022/06/12 22:25:11;;;;;;;;;;;20.70;99.90;;;19.77;58.38;95627.78;10477708;28;1984;-74
2022/06/12 22:30:14;;;;;;;;;;;20.60;99.90;;;19.61;58.25;95626.84;10476638;28;2275;-72
2022/06/12 22:35:18;;;;;;;;;;;20.60;99.90;;;19.49;59.09;95618.56;10478593;28;1855;-73
2022/06/12 22:40:21;;;;;;;;;;;20.40;99.90;;;19.45;59.72;95618.44;10479521;28;1881;-72
2022/06/12 22:45:24;;;;;;;;;;;20.40;99.90;;;19.44;58.58;95617.63;10479211;28;1899;-73
2022/06/12 22:50:27;;;;;;;;;;;20.30;99.90;;;19.34;58.80;95612.59;10477617;28;1792;-71
2022/06/12 22:55:30;;;;;;;;;;;20.20;99.90;;;19.24;58.31;95618.44;10489498;28;1903;-72
2022/06/12 23:00:34;;;;;;;;;;;20.10;99.90;;;19.14;58.53;95606.00;10486650;28;1914;-72
2022/06/12 23:05:37;;;;;;;;;;;20.00;99.90;;;19.13;59.53;95614.50;10474302;28;1985;-73
2022/06/12 23:10:40;;;;;;;;;;;20.00;99.90;;;19.02;60.53;95610.59;10475378;28;2165;-72
2022/06/12 23:15:43;;;;;;;;;;;20.00;99.90;;;19.08;62.78;95615.50;10472627;28;1991;-74
2022/06/12 23:21:05;;;;;;;;;;;19.90;99.90;;;18.99;64.11;95622.94;10476867;28;1775;-73
2022/06/12 23:26:08;;;;;;;;;;;19.80;99.90;;;18.94;65.03;95631.31;10477071;28;1918;-74
2022/06/12 23:31:11;;;;;;;;;;;19.80;99.90;;;18.93;65.15;95628.91;10474822;28;1881;-73
2022/06/12 23:36:15;;;;;;;;;;;19.80;99.90;;;18.87;65.49;95620.13;10475118;28;1891;-72